Terminal Aerodrome Forecast
Issued by NWS

Home | Current Version | Previous Version | Text Only | Print | Product List | Glossary On
Versions: 1 2 3 4 5 6 7 8 9 10 11 12 13 14 15 16 17 18 19 20 21
000
FTUS45 KREV 231740
TAFRNO
TAF
KRNO 231740Z 2318/2418 33008KT P6SM VCSH FEW050 BKN070
      TEMPO 2318/2321 35011G18KT 5SM -SHSN BKN030 OVC060
     FM232100 33009KT P6SM VCSH FEW030 BKN050
     FM240500 VRB04KT P6SM SCT050=

USA.gov is the U.S. government's official web portal to all federal, state and local government web resources and services.